F/V Hebeilan — FULR — position and weather

sailwx.info

Track history (hours):
 
Tides and Currents Weather Stations Pressure Air Temp Water Temp Dewpoint Dewpoint Depression Visibility Wind Speed Wind Dir Waves Ship Positions

F/V Hebeilan

Last reported at 2018-Feb-24 04:35 UTC. Time now 2018-Feb-25 08:05 UTC.
Position N 47°36' W 003°40'.

Length 16 m; draft 2.5 m.

Type: Fishing. MMSI: 228133900.

Date/timePositionNaut miles runAvg speedWind from/ knotsBaromVisibWave heightAir tempDewpointWater temp
2018-Feb-24 04:35N 47°36' W 003°40'2 8.8
2018-Feb-24 04:21N 47°37' W 003°38'3 9.0
2018-Feb-24 04:00N 47°39' W 003°34'4 9.0
2018-Feb-24 03:30N 47°40' W 003°28'5 9.1
2018-Feb-24 03:00N 47°43' W 003°22'1 1.7
2018-Feb-24 02:31N 47°44' W 003°22'0 0.3
2018-Feb-24 02:00N 47°44' W 003°22'2 3.4
2018-Feb-24 01:30N 47°42' W 003°22'4 7.8
2018-Feb-24 01:00N 47°40' W 003°27'4 8.1
2018-Feb-24 00:30N 47°39' W 003°33'4 8.4
2018-Feb-24 00:00N 47°36' W 003°38'3 0.1
2018-Feb-22 17:43N 47°38' W 003°34'2 8.6
2018-Feb-22 17:30N 47°39' W 003°32'4 8.7
2018-Feb-22 17:00N 47°41' W 003°26'4 7.8
2018-Feb-22 16:30N 47°43' W 003°22'0 0.7
2018-Feb-22 16:00N 47°44' W 003°22'0 0.0
2018-Feb-22 15:30N 47°44' W 003°22'1 2.9
2018-Feb-22 15:00N 47°42' W 003°22'1 2.7
2018-Feb-22 14:30N 47°44' W 003°22'0 0.0
2018-Feb-22 14:00N 47°44' W 003°22'0 0.2
2018-Feb-22 13:29N 47°44' W 003°22'0 0.0
2018-Feb-22 12:59N 47°44' W 003°22'0 0.0
2018-Feb-22 12:29N 47°44' W 003°22'0 0.0
2018-Feb-22 11:59N 47°44' W 003°22'0 0.0
2018-Feb-22 11:29N 47°44' W 003°22'0 0.0
2018-Feb-22 10:59N 47°44' W 003°22'0 0.0
2018-Feb-22 10:29N 47°44' W 003°22'0 0.0
2018-Feb-22 09:59N 47°44' W 003°22'0 0.0
2018-Feb-22 09:29N 47°44' W 003°22'0 0.0
2018-Feb-22 08:59N 47°44' W 003°22'0 0.0
2018-Feb-22 08:29N 47°44' W 003°22'0 0.0
2018-Feb-22 07:59N 47°44' W 003°22'0 0.0
2018-Feb-22 07:29N 47°44' W 003°22'0 0.0
2018-Feb-21 17:31N 47°44' W 003°22'0 0.0
2018-Feb-21 17:28N 47°44' W 003°22'0 0.0
2018-Feb-21 16:58N 47°44' W 003°22'0 0.0
2018-Feb-21 16:28N 47°44' W 003°22'0 0.0
2018-Feb-21 15:58N 47°44' W 003°22'0 0.0
2018-Feb-21 15:28N 47°44' W 003°22'0 0.0
2018-Feb-21 14:58N 47°44' W 003°22'0 0.0
2018-Feb-21 14:28N 47°44' W 003°22'0 0.0
2018-Feb-21 13:58N 47°44' W 003°22'0 0.0
2018-Feb-21 13:28N 47°44' W 003°22'0 0.0
2018-Feb-21 12:58N 47°44' W 003°22'0 0.0
2018-Feb-21 12:28N 47°44' W 003°22'0 0.0
2018-Feb-21 11:58N 47°44' W 003°22'0 0.0
2018-Feb-21 11:28N 47°44' W 003°22'0 0.0
2018-Feb-21 10:58N 47°44' W 003°22'0 0.0
2018-Feb-21 10:28N 47°44' W 003°22'0 0.0
2018-Feb-21 09:58N 47°44' W 003°22'0 0.0
2018-Feb-21 09:28N 47°44' W 003°22'0 0.0
2018-Feb-21 08:58N 47°44' W 003°22'0 0.0
2018-Feb-21 08:28N 47°44' W 003°22'0 0.0
2018-Feb-21 07:58N 47°44' W 003°22'0 0.0
2018-Feb-21 07:28N 47°44' W 003°22'0 0.0
2018-Feb-21 06:58N 47°44' W 003°22'0 0.0
2018-Feb-20 15:06N 47°44' W 003°22'0 0.1
2018-Feb-20 15:00N 47°44' W 003°22'0 0.0
2018-Feb-20 14:30N 47°44' W 003°22'0 0.0
2018-Feb-20 14:00N 47°44' W 003°22'0 0.0
2018-Feb-20 13:30N 47°44' W 003°22'0 0.0
2018-Feb-20 13:00N 47°44' W 003°22'0 0.0
2018-Feb-20 12:30N 47°44' W 003°22'0 0.0
2018-Feb-20 12:00N 47°44' W 003°22'0 0.0
2018-Feb-20 11:30N 47°44' W 003°22'0 0.0
2018-Feb-20 11:00N 47°44' W 003°22'0 0.0
2018-Feb-20 10:30N 47°44' W 003°22'0 0.0
2018-Feb-20 10:00N 47°44' W 003°22'0 0.0
2018-Feb-20 09:30N 47°44' W 003°22'0 0.0
2018-Feb-20 09:00N 47°44' W 003°22'0 0.0
2018-Feb-20 08:30N 47°44' W 003°22'0 0.0
2018-Feb-20 08:00N 47°44' W 003°22'0 0.0
2018-Feb-20 07:30N 47°44' W 003°22'0 0.0
2018-Feb-19 14:43N 47°44' W 003°22'0 0.0
2018-Feb-19 14:28N 47°44' W 003°22'0 0.0
2018-Feb-19 13:58N 47°44' W 003°22'0 0.0
2018-Feb-19 10:58N 47°44' W 003°22'0 0.0
2018-Feb-19 10:28N 47°44' W 003°22'0 0.0
2018-Feb-19 09:58N 47°44' W 003°22'0 0.0
2018-Feb-19 09:28N 47°44' W 003°22'0 0.0
2018-Feb-19 08:58N 47°44' W 003°22'0 0.0
2018-Feb-19 08:25N 47°44' W 003°22'  
2018-Feb-17 00:36N 47°44' W 003°22'0 0.1
2018-Feb-17 00:30N 47°44' W 003°22'0 0.0
2018-Feb-17 00:00N 47°44' W 003°22'0 0.4
2018-Feb-16 23:28N 47°44' W 003°22'0 0.0
2018-Feb-16 22:58N 47°44' W 003°22'0 0.3
2018-Feb-16 22:30N 47°44' W 003°22'1 2.0
2018-Feb-16 22:00N 47°43' W 003°22'3 5.8
2018-Feb-16 21:30N 47°40' W 003°22'4 8.6
2018-Feb-16 21:00N 47°35' W 003°23'3 4.9
2018-Feb-16 20:29N 47°34' W 003°26'2 3.1
2018-Feb-16 20:00N 47°33' W 003°28'1 2.6
2018-Feb-16 19:30N 47°33' W 003°30'2 3.3
2018-Feb-16 18:57N 47°34' W 003°33'2 3.4
2018-Feb-16 18:24N 47°35' W 003°35'1 3.0
2018-Feb-16 18:00N 47°36' W 003°35'2 3.9
2018-Feb-16 17:30N 47°35' W 003°32'2 3.9
2018-Feb-16 16:59N 47°34' W 003°30'2 3.6
2018-Feb-16 16:30N 47°32' W 003°30'2 3.9
2018-Feb-16 16:00N 47°30' W 003°29'2 3.9
2018-Feb-16 15:30N 47°28' W 003°29'2 3.5
2018-Feb-16 14:59N 47°27' W 003°29'1 1.2
2018-Feb-16 14:29N 47°26' W 003°29'2 3.6
2018-Feb-16 14:00N 47°25' W 003°27'2 3.2
2018-Feb-16 13:29N 47°24' W 003°27'2 3.2
2018-Feb-16 12:59N 47°24' W 003°29'2 3.2
2018-Feb-16 12:28N 47°25' W 003°30'2 3.5
2018-Feb-16 12:00N 47°26' W 003°32'2 3.5
2018-Feb-16 11:20N 47°26' W 003°35'2 1.8
2018-Feb-16 10:16N 47°27' W 003°38'1 3.8
2018-Feb-16 09:59N 47°28' W 003°36'2 3.1
2018-Feb-16 09:27N 47°27' W 003°34'2 3.5
2018-Feb-16 08:44N 47°25' W 003°36'11 0.4
2018-Feb-15 06:12N 47°35' W 003°43'2 7.8
2018-Feb-15 05:57N 47°36' W 003°40'4 8.0
2018-Feb-15 05:29N 47°38' W 003°36'4 7.9
2018-Feb-15 04:59N 47°40' W 003°31'4 8.3
2018-Feb-15 04:30N 47°41' W 003°25'4 6.9
2018-Feb-15 03:59N 47°44' W 003°22'0 0.3
2018-Feb-15 03:30N 47°44' W 003°22'0 0.0
2018-Feb-15 02:59N 47°44' W 003°22'0 0.0
2018-Feb-15 02:29N 47°44' W 003°22'0 0.0
2018-Feb-15 01:59N 47°44' W 003°22'0 0.1
2018-Feb-15 01:30N 47°44' W 003°22'4 8.1
2018-Feb-15 01:00N 47°40' W 003°21'4 7.5
2018-Feb-15 00:30N 47°37' W 003°17'3 5.1
2018-Feb-15 00:00N 47°35' W 003°15'2 3.3
2018-Feb-14 23:30N 47°34' W 003°14'2 3.3
2018-Feb-14 23:00N 47°33' W 003°16'2 3.0
2018-Feb-14 22:30N 47°34' W 003°18'2 3.1
2018-Feb-14 22:00N 47°35' W 003°17'1 2.9
2018-Feb-14 21:30N 47°35' W 003°15'2 3.1
2018-Feb-14 21:00N 47°33' W 003°14'2 3.5
2018-Feb-14 20:30N 47°33' W 003°17'3 6.0
2018-Feb-14 20:00N 47°32' W 003°21'3 5.8
2018-Feb-14 19:30N 47°30' W 003°24'1 2.9
2018-Feb-14 19:00N 47°30' W 003°26'2 3.4
2018-Feb-14 18:26N 47°29' W 003°29'2 3.6
2018-Feb-14 17:56N 47°29' W 003°31'5 2.1
2018-Feb-14 15:24N 47°29' W 003°39'0 1.2
2018-Feb-14 15:00N 47°29' W 003°38'2 3.4
2018-Feb-14 14:26N 47°29' W 003°36'2 3.5
2018-Feb-14 13:59N 47°28' W 003°34'2 3.7
2018-Feb-14 13:29N 47°26' W 003°35'2 2.2
2018-Feb-14 12:40N 47°26' W 003°38'1 3.5
2018-Feb-14 12:25N 47°27' W 003°38'1 3.3
2018-Feb-14 12:00N 47°28' W 003°36'2 3.2
2018-Feb-14 11:29N 47°29' W 003°35'4 2.6
2018-Feb-14 09:48N 47°28' W 003°41'2 3.5
2018-Feb-14 09:22N 47°26' W 003°40'1 3.6
2018-Feb-14 09:00N 47°27' W 003°38'2 3.3
2018-Feb-14 08:23N 47°28' W 003°36'1 3.1
2018-Feb-14 07:57N 47°29' W 003°35'2 3.0
2018-Feb-14 07:09N 47°31' W 003°36'1 3.0
2018-Feb-14 06:59N 47°32' W 003°37'1 1.3
2018-Feb-14 06:24N 47°32' W 003°38'2 3.4
2018-Feb-14 05:58N 47°31' W 003°38'  
Track history (hours):
 
Tides and Currents Weather Stations Pressure Air Temp Water Temp Dewpoint Dewpoint Depression Visibility Wind Speed Wind Dir Waves Ship Positions

F/V Hebeilan

Last reported at 2018-Feb-24 04:35 UTC. Time now 2018-Feb-25 08:05 UTC.
Position N 47°36' W 003°40'.

Length 16 m; draft 2.5 m.

Type: Fishing. MMSI: 228133900.

Date/timePositionNaut miles runAvg speedWind from/ knotsBaromVisibWave heightAir tempDewpointWater temp
2018-Feb-24 04:35N 47°36' W 003°40'2 8.8
2018-Feb-24 04:21N 47°37' W 003°38'3 9.0
2018-Feb-24 04:00N 47°39' W 003°34'4 9.0
2018-Feb-24 03:30N 47°40' W 003°28'5 9.1
2018-Feb-24 03:00N 47°43' W 003°22'1 1.7
2018-Feb-24 02:31N 47°44' W 003°22'0 0.3
2018-Feb-24 02:00N 47°44' W 003°22'2 3.4
2018-Feb-24 01:30N 47°42' W 003°22'4 7.8
2018-Feb-24 01:00N 47°40' W 003°27'4 8.1
2018-Feb-24 00:30N 47°39' W 003°33'4 8.4
2018-Feb-24 00:00N 47°36' W 003°38'3 0.1
2018-Feb-22 17:43N 47°38' W 003°34'2 8.6
2018-Feb-22 17:30N 47°39' W 003°32'4 8.7
2018-Feb-22 17:00N 47°41' W 003°26'4 7.8
2018-Feb-22 16:30N 47°43' W 003°22'0 0.7
2018-Feb-22 16:00N 47°44' W 003°22'0 0.0
2018-Feb-22 15:30N 47°44' W 003°22'1 2.9
2018-Feb-22 15:00N 47°42' W 003°22'1 2.7
2018-Feb-22 14:30N 47°44' W 003°22'0 0.0
2018-Feb-22 14:00N 47°44' W 003°22'0 0.2
2018-Feb-22 13:29N 47°44' W 003°22'0 0.0
2018-Feb-22 12:59N 47°44' W 003°22'0 0.0
2018-Feb-22 12:29N 47°44' W 003°22'0 0.0
2018-Feb-22 11:59N 47°44' W 003°22'0 0.0
2018-Feb-22 11:29N 47°44' W 003°22'0 0.0
2018-Feb-22 10:59N 47°44' W 003°22'0 0.0
2018-Feb-22 10:29N 47°44' W 003°22'0 0.0
2018-Feb-22 09:59N 47°44' W 003°22'0 0.0
2018-Feb-22 09:29N 47°44' W 003°22'0 0.0
2018-Feb-22 08:59N 47°44' W 003°22'0 0.0
2018-Feb-22 08:29N 47°44' W 003°22'0 0.0
2018-Feb-22 07:59N 47°44' W 003°22'0 0.0
2018-Feb-22 07:29N 47°44' W 003°22'0 0.0
2018-Feb-21 17:31N 47°44' W 003°22'0 0.0
2018-Feb-21 17:28N 47°44' W 003°22'0 0.0
2018-Feb-21 16:58N 47°44' W 003°22'0 0.0
2018-Feb-21 16:28N 47°44' W 003°22'0 0.0
2018-Feb-21 15:58N 47°44' W 003°22'0 0.0
2018-Feb-21 15:28N 47°44' W 003°22'0 0.0
2018-Feb-21 14:58N 47°44' W 003°22'0 0.0
2018-Feb-21 14:28N 47°44' W 003°22'0 0.0
2018-Feb-21 13:58N 47°44' W 003°22'0 0.0
2018-Feb-21 13:28N 47°44' W 003°22'0 0.0
2018-Feb-21 12:58N 47°44' W 003°22'0 0.0
2018-Feb-21 12:28N 47°44' W 003°22'0 0.0
2018-Feb-21 11:58N 47°44' W 003°22'0 0.0
2018-Feb-21 11:28N 47°44' W 003°22'0 0.0
2018-Feb-21 10:58N 47°44' W 003°22'0 0.0
2018-Feb-21 10:28N 47°44' W 003°22'0 0.0
2018-Feb-21 09:58N 47°44' W 003°22'0 0.0
2018-Feb-21 09:28N 47°44' W 003°22'0 0.0
2018-Feb-21 08:58N 47°44' W 003°22'0 0.0
2018-Feb-21 08:28N 47°44' W 003°22'0 0.0
2018-Feb-21 07:58N 47°44' W 003°22'0 0.0
2018-Feb-21 07:28N 47°44' W 003°22'0 0.0
2018-Feb-21 06:58N 47°44' W 003°22'0 0.0
2018-Feb-20 15:06N 47°44' W 003°22'0 0.1
2018-Feb-20 15:00N 47°44' W 003°22'0 0.0
2018-Feb-20 14:30N 47°44' W 003°22'0 0.0
2018-Feb-20 14:00N 47°44' W 003°22'0 0.0
2018-Feb-20 13:30N 47°44' W 003°22'0 0.0
2018-Feb-20 13:00N 47°44' W 003°22'0 0.0
2018-Feb-20 12:30N 47°44' W 003°22'0 0.0
2018-Feb-20 12:00N 47°44' W 003°22'0 0.0
2018-Feb-20 11:30N 47°44' W 003°22'0 0.0
2018-Feb-20 11:00N 47°44' W 003°22'0 0.0
2018-Feb-20 10:30N 47°44' W 003°22'0 0.0
2018-Feb-20 10:00N 47°44' W 003°22'0 0.0
2018-Feb-20 09:30N 47°44' W 003°22'0 0.0
2018-Feb-20 09:00N 47°44' W 003°22'0 0.0
2018-Feb-20 08:30N 47°44' W 003°22'0 0.0
2018-Feb-20 08:00N 47°44' W 003°22'0 0.0
2018-Feb-20 07:30N 47°44' W 003°22'0 0.0
2018-Feb-19 14:43N 47°44' W 003°22'0 0.0
2018-Feb-19 14:28N 47°44' W 003°22'0 0.0
2018-Feb-19 13:58N 47°44' W 003°22'0 0.0
2018-Feb-19 10:58N 47°44' W 003°22'0 0.0
2018-Feb-19 10:28N 47°44' W 003°22'0 0.0
2018-Feb-19 09:58N 47°44' W 003°22'0 0.0
2018-Feb-19 09:28N 47°44' W 003°22'0 0.0
2018-Feb-19 08:58N 47°44' W 003°22'0 0.0
2018-Feb-19 08:25N 47°44' W 003°22'  
2018-Feb-17 00:36N 47°44' W 003°22'0 0.1
2018-Feb-17 00:30N 47°44' W 003°22'0 0.0
2018-Feb-17 00:00N 47°44' W 003°22'0 0.4
2018-Feb-16 23:28N 47°44' W 003°22'0 0.0
2018-Feb-16 22:58N 47°44' W 003°22'0 0.3
2018-Feb-16 22:30N 47°44' W 003°22'1 2.0
2018-Feb-16 22:00N 47°43' W 003°22'3 5.8
2018-Feb-16 21:30N 47°40' W 003°22'4 8.6
2018-Feb-16 21:00N 47°35' W 003°23'3 4.9
2018-Feb-16 20:29N 47°34' W 003°26'2 3.1
2018-Feb-16 20:00N 47°33' W 003°28'1 2.6
2018-Feb-16 19:30N 47°33' W 003°30'2 3.3
2018-Feb-16 18:57N 47°34' W 003°33'2 3.4
2018-Feb-16 18:24N 47°35' W 003°35'1 3.0
2018-Feb-16 18:00N 47°36' W 003°35'2 3.9
2018-Feb-16 17:30N 47°35' W 003°32'2 3.9
2018-Feb-16 16:59N 47°34' W 003°30'2 3.6
2018-Feb-16 16:30N 47°32' W 003°30'2 3.9
2018-Feb-16 16:00N 47°30' W 003°29'2 3.9
2018-Feb-16 15:30N 47°28' W 003°29'2 3.5
2018-Feb-16 14:59N 47°27' W 003°29'1 1.2
2018-Feb-16 14:29N 47°26' W 003°29'2 3.6
2018-Feb-16 14:00N 47°25' W 003°27'2 3.2
2018-Feb-16 13:29N 47°24' W 003°27'2 3.2
2018-Feb-16 12:59N 47°24' W 003°29'2 3.2
2018-Feb-16 12:28N 47°25' W 003°30'2 3.5
2018-Feb-16 12:00N 47°26' W 003°32'2 3.5
2018-Feb-16 11:20N 47°26' W 003°35'2 1.8
2018-Feb-16 10:16N 47°27' W 003°38'1 3.8
2018-Feb-16 09:59N 47°28' W 003°36'2 3.1
2018-Feb-16 09:27N 47°27' W 003°34'2 3.5
2018-Feb-16 08:44N 47°25' W 003°36'11 0.4
2018-Feb-15 06:12N 47°35' W 003°43'2 7.8
2018-Feb-15 05:57N 47°36' W 003°40'4 8.0
2018-Feb-15 05:29N 47°38' W 003°36'4 7.9
2018-Feb-15 04:59N 47°40' W 003°31'4 8.3
2018-Feb-15 04:30N 47°41' W 003°25'4 6.9
2018-Feb-15 03:59N 47°44' W 003°22'0 0.3
2018-Feb-15 03:30N 47°44' W 003°22'0 0.0
2018-Feb-15 02:59N 47°44' W 003°22'0 0.0
2018-Feb-15 02:29N 47°44' W 003°22'0 0.0
2018-Feb-15 01:59N 47°44' W 003°22'0 0.1
2018-Feb-15 01:30N 47°44' W 003°22'4 8.1
2018-Feb-15 01:00N 47°40' W 003°21'4 7.5
2018-Feb-15 00:30N 47°37' W 003°17'3 5.1
2018-Feb-15 00:00N 47°35' W 003°15'2 3.3
2018-Feb-14 23:30N 47°34' W 003°14'2 3.3
2018-Feb-14 23:00N 47°33' W 003°16'2 3.0
2018-Feb-14 22:30N 47°34' W 003°18'2 3.1
2018-Feb-14 22:00N 47°35' W 003°17'1 2.9
2018-Feb-14 21:30N 47°35' W 003°15'2 3.1
2018-Feb-14 21:00N 47°33' W 003°14'2 3.5
2018-Feb-14 20:30N 47°33' W 003°17'3 6.0
2018-Feb-14 20:00N 47°32' W 003°21'3 5.8
2018-Feb-14 19:30N 47°30' W 003°24'1 2.9
2018-Feb-14 19:00N 47°30' W 003°26'2 3.4
2018-Feb-14 18:26N 47°29' W 003°29'2 3.6
2018-Feb-14 17:56N 47°29' W 003°31'5 2.1
2018-Feb-14 15:24N 47°29' W 003°39'0 1.2
2018-Feb-14 15:00N 47°29' W 003°38'2 3.4
2018-Feb-14 14:26N 47°29' W 003°36'2 3.5
2018-Feb-14 13:59N 47°28' W 003°34'2 3.7
2018-Feb-14 13:29N 47°26' W 003°35'2 2.2
2018-Feb-14 12:40N 47°26' W 003°38'1 3.5
2018-Feb-14 12:25N 47°27' W 003°38'1 3.3
2018-Feb-14 12:00N 47°28' W 003°36'2 3.2
2018-Feb-14 11:29N 47°29' W 003°35'4 2.6
2018-Feb-14 09:48N 47°28' W 003°41'2 3.5
2018-Feb-14 09:22N 47°26' W 003°40'1 3.6
2018-Feb-14 09:00N 47°27' W 003°38'2 3.3
2018-Feb-14 08:23N 47°28' W 003°36'1 3.1
2018-Feb-14 07:57N 47°29' W 003°35'2 3.0
2018-Feb-14 07:09N 47°31' W 003°36'1 3.0
2018-Feb-14 06:59N 47°32' W 003°37'1 1.3
2018-Feb-14 06:24N 47°32' W 003°38'2 3.4
2018-Feb-14 05:58N 47°31' W 003°38'  

Dump ship's entire track history